sensor_id;sensor_type;location;lat;lon;timestamp;pressure;altitude;pressure_sealevel;temperature;humidity
17649;BME280;8943;51.110;-4.158;2023-04-23T00:00:24;99666.63;;;14.35;56.47
17649;BME280;8943;51.110;-4.158;2023-04-23T00:02:53;99677.72;;;14.40;56.40
17649;BME280;8943;51.110;-4.158;2023-04-23T00:05:26;99671.34;;;14.41;56.56
17649;BME280;8943;51.110;-4.158;2023-04-23T00:07:56;99666.81;;;14.41;56.20
17649;BME280;8943;51.110;-4.158;2023-04-23T00:10:27;99667.81;;;14.40;56.23
17649;BME280;8943;51.110;-4.158;2023-04-23T00:12:56;99672.84;;;14.43;56.04
17649;BME280;8943;51.110;-4.158;2023-04-23T00:15:26;99667.00;;;14.40;56.06
17649;BME280;8943;51.110;-4.158;2023-04-23T00:17:54;99668.97;;;14.38;56.02
17649;BME280;8943;51.110;-4.158;2023-04-23T00:20:22;99669.31;;;14.35;56.07
17649;BME280;8943;51.110;-4.158;2023-04-23T00:22:53;99671.00;;;14.36;55.95
17649;BME280;8943;51.110;-4.158;2023-04-23T00:25:21;99671.81;;;14.36;56.09
17649;BME280;8943;51.110;-4.158;2023-04-23T00:27:51;99662.25;;;14.34;55.92
17649;BME280;8943;51.110;-4.158;2023-04-23T00:30:25;99672.97;;;14.34;55.90
17649;BME280;8943;51.110;-4.158;2023-04-23T00:32:56;99674.69;;;14.35;56.04
17649;BME280;8943;51.110;-4.158;2023-04-23T00:35:28;99670.28;;;14.34;55.76
17649;BME280;8943;51.110;-4.158;2023-04-23T00:37:59;99675.34;;;14.37;55.58
17649;BME280;8943;51.110;-4.158;2023-04-23T00:40:30;99679.38;;;14.41;55.60
17649;BME280;8943;51.110;-4.158;2023-04-23T00:43:02;99679.19;;;14.42;55.54
17649;BME280;8943;51.110;-4.158;2023-04-23T00:45:39;99679.03;;;14.44;55.63
17649;BME280;8943;51.110;-4.158;2023-04-23T00:48:22;99674.84;;;14.41;55.45
17649;BME280;8943;51.110;-4.158;2023-04-23T00:50:58;99682.53;;;14.36;55.35
17649;BME280;8943;51.110;-4.158;2023-04-23T00:53:33;99680.53;;;14.38;55.28
17649;BME280;8943;51.110;-4.158;2023-04-23T00:56:05;99681.72;;;14.36;55.43
17649;BME280;8943;51.110;-4.158;2023-04-23T00:58:36;99688.75;;;14.37;55.19
17649;BME280;8943;51.110;-4.158;2023-04-23T01:01:08;99688.75;;;14.37;55.56
17649;BME280;8943;51.110;-4.158;2023-04-23T01:03:41;99686.38;;;14.34;55.37
17649;BME280;8943;51.110;-4.158;2023-04-23T01:06:10;99685.19;;;14.28;55.26
17649;BME280;8943;51.110;-4.158;2023-04-23T01:08:42;99676.63;;;14.25;55.38
17649;BME280;8943;51.110;-4.158;2023-04-23T01:11:12;99678.63;;;14.23;54.99
17649;BME280;8943;51.110;-4.158;2023-04-23T01:13:42;99670.91;;;14.20;55.25
17649;BME280;8943;51.110;-4.158;2023-04-23T01:16:11;99667.88;;;14.14;55.27
17649;BME280;8943;51.110;-4.158;2023-04-23T01:18:41;99673.56;;;14.11;55.29
17649;BME280;8943;51.110;-4.158;2023-04-23T01:21:10;99674.59;;;14.10;54.91
17649;BME280;8943;51.110;-4.158;2023-04-23T01:23:40;99674.19;;;14.05;55.29
17649;BME280;8943;51.110;-4.158;2023-04-23T01:26:09;99675.38;;;14.03;55.00
17649;BME280;8943;51.110;-4.158;2023-04-23T01:28:38;99681.03;;;14.00;55.02
17649;BME280;8943;51.110;-4.158;2023-04-23T01:31:07;99690.25;;;13.97;55.09
17649;BME280;8943;51.110;-4.158;2023-04-23T01:33:41;99683.69;;;13.91;55.09
17649;BME280;8943;51.110;-4.158;2023-04-23T01:36:10;99680.84;;;13.93;55.08
17649;BME280;8943;51.110;-4.158;2023-04-23T01:38:40;99678.47;;;13.90;54.89
17649;BME280;8943;51.110;-4.158;2023-04-23T01:41:09;99676.97;;;13.87;54.88
17649;BME280;8943;51.110;-4.158;2023-04-23T01:43:40;99676.75;;;13.81;54.90
17649;BME280;8943;51.110;-4.158;2023-04-23T01:46:08;99687.09;;;13.76;54.85
17649;BME280;8943;51.110;-4.158;2023-04-23T01:48:38;99684.75;;;13.73;55.04
17649;BME280;8943;51.110;-4.158;2023-04-23T01:51:06;99683.09;;;13.72;54.76
17649;BME280;8943;51.110;-4.158;2023-04-23T01:53:35;99683.41;;;13.69;55.08
17649;BME280;8943;51.110;-4.158;2023-04-23T01:56:06;99679.72;;;13.70;54.99
17649;BME280;8943;51.110;-4.158;2023-04-23T01:58:35;99679.88;;;13.68;55.23
17649;BME280;8943;51.110;-4.158;2023-04-23T02:01:03;99682.88;;;13.65;55.42
17649;BME280;8943;51.110;-4.158;2023-04-23T02:03:32;99690.06;;;13.64;55.12
17649;BME280;8943;51.110;-4.158;2023-04-23T02:06:01;99685.50;;;13.57;55.15
17649;BME280;8943;51.110;-4.158;2023-04-23T02:08:30;99687.47;;;13.55;55.05
17649;BME280;8943;51.110;-4.158;2023-04-23T02:10:59;99683.78;;;13.48;55.32
17649;BME280;8943;51.110;-4.158;2023-04-23T02:13:29;99680.25;;;13.47;54.98
17649;BME280;8943;51.110;-4.158;2023-04-23T02:16:00;99670.53;;;13.46;55.21
17649;BME280;8943;51.110;-4.158;2023-04-23T02:18:28;99669.84;;;13.44;55.18
17649;BME280;8943;51.110;-4.158;2023-04-23T02:20:56;99671.53;;;13.45;55.18
17649;BME280;8943;51.110;-4.158;2023-04-23T02:23:25;99682.22;;;13.45;55.09
17649;BME280;8943;51.110;-4.158;2023-04-23T02:25:53;99675.03;;;13.46;54.89
17649;BME280;8943;51.110;-4.158;2023-04-23T02:28:21;99669.84;;;13.44;54.59
17649;BME280;8943;51.110;-4.158;2023-04-23T02:30:51;99688.28;;;13.47;54.89
17649;BME280;8943;51.110;-4.158;2023-04-23T02:33:19;99678.06;;;13.43;54.99
17649;BME280;8943;51.110;-4.158;2023-04-23T02:35:49;99676.88;;;13.45;55.13
17649;BME280;8943;51.110;-4.158;2023-04-23T02:38:17;99680.25;;;13.47;55.11
17649;BME280;8943;51.110;-4.158;2023-04-23T02:40:45;99677.25;;;13.50;55.12
17649;BME280;8943;51.110;-4.158;2023-04-23T02:43:16;99673.44;;;13.53;55.25
17649;BME280;8943;51.110;-4.158;2023-04-23T02:45:45;99676.09;;;13.53;54.94
17649;BME280;8943;51.110;-4.158;2023-04-23T02:48:17;99685.28;;;13.50;55.03
17649;BME280;8943;51.110;-4.158;2023-04-23T02:50:47;99677.13;;;13.52;54.95
17649;BME280;8943;51.110;-4.158;2023-04-23T02:53:24;99686.94;;;13.51;54.97
17649;BME280;8943;51.110;-4.158;2023-04-23T02:55:53;99672.06;;;13.49;54.87
17649;BME280;8943;51.110;-4.158;2023-04-23T02:58:21;99679.25;;;13.48;54.77
17649;BME280;8943;51.110;-4.158;2023-04-23T03:00:49;99684.75;;;13.47;54.83
17649;BME280;8943;51.110;-4.158;2023-04-23T03:03:19;99677.88;;;13.44;54.75
17649;BME280;8943;51.110;-4.158;2023-04-23T03:05:47;99677.88;;;13.44;54.97
17649;BME280;8943;51.110;-4.158;2023-04-23T03:08:15;99668.50;;;13.40;54.71
17649;BME280;8943;51.110;-4.158;2023-04-23T03:10:44;99672.84;;;13.41;54.45
17649;BME280;8943;51.110;-4.158;2023-04-23T03:13:12;99679.19;;;13.40;54.41
17649;BME280;8943;51.110;-4.158;2023-04-23T03:15:41;99675.16;;;13.36;54.32
17649;BME280;8943;51.110;-4.158;2023-04-23T03:18:09;99676.97;;;13.35;54.43
17649;BME280;8943;51.110;-4.158;2023-04-23T03:20:39;99667.75;;;13.30;54.30
17649;BME280;8943;51.110;-4.158;2023-04-23T03:23:07;99667.69;;;13.22;54.27
17649;BME280;8943;51.110;-4.158;2023-04-23T03:25:35;99666.44;;;13.16;54.30
17649;BME280;8943;51.110;-4.158;2023-04-23T03:28:03;99677.31;;;13.14;54.59
17649;BME280;8943;51.110;-4.158;2023-04-23T03:30:35;99670.75;;;13.09;54.33
17649;BME280;8943;51.110;-4.158;2023-04-23T03:33:03;99673.53;;;13.07;54.42
17649;BME280;8943;51.110;-4.158;2023-04-23T03:35:31;99670.75;;;13.09;54.36
17649;BME280;8943;51.110;-4.158;2023-04-23T03:38:01;99672.72;;;13.07;54.53
17649;BME280;8943;51.110;-4.158;2023-04-23T03:40:33;99669.53;;;13.03;54.16
17649;BME280;8943;51.110;-4.158;2023-04-23T03:43:04;99672.19;;;13.03;54.69
17649;BME280;8943;51.110;-4.158;2023-04-23T03:45:32;99673.88;;;13.04;53.78
17649;BME280;8943;51.110;-4.158;2023-04-23T03:48:00;99675.00;;;13.02;54.01
17649;BME280;8943;51.110;-4.158;2023-04-23T03:50:28;99679.22;;;13.04;54.07
17649;BME280;8943;51.110;-4.158;2023-04-23T03:53:01;99683.88;;;13.02;54.18
17649;BME280;8943;51.110;-4.158;2023-04-23T03:55:29;99679.22;;;13.04;53.82
17649;BME280;8943;51.110;-4.158;2023-04-23T03:57:58;99675.84;;;13.02;54.16
17649;BME280;8943;51.110;-4.158;2023-04-23T04:00:27;99670.50;;;13.02;53.64
17649;BME280;8943;51.110;-4.158;2023-04-23T04:02:55;99675.63;;;12.96;54.28
17649;BME280;8943;51.110;-4.158;2023-04-23T04:05:26;99668.59;;;12.95;54.10
17649;BME280;8943;51.110;-4.158;2023-04-23T04:07:56;99674.41;;;12.90;54.06
17649;BME280;8943;51.110;-4.158;2023-04-23T04:10:27;99673.56;;;12.89;54.23
17649;BME280;8943;51.110;-4.158;2023-04-23T04:12:55;99669.38;;;12.87;54.25
17649;BME280;8943;51.110;-4.158;2023-04-23T04:15:27;99674.72;;;12.87;54.36
17649;BME280;8943;51.110;-4.158;2023-04-23T04:17:55;99665.31;;;12.83;54.25
17649;BME280;8943;51.110;-4.158;2023-04-23T04:20:23;99659.97;;;12.83;54.30
17649;BME280;8943;51.110;-4.158;2023-04-23T04:22:54;99660.66;;;12.85;54.05
17649;BME280;8943;51.110;-4.158;2023-04-23T04:25:24;99665.69;;;12.88;54.08
17649;BME280;8943;51.110;-4.158;2023-04-23T04:27:56;99659.66;;;12.86;54.14
17649;BME280;8943;51.110;-4.158;2023-04-23T04:30:24;99655.00;;;12.88;54.44
17649;BME280;8943;51.110;-4.158;2023-04-23T04:32:53;99657.66;;;12.88;54.25
17649;BME280;8943;51.110;-4.158;2023-04-23T04:35:22;99669.91;;;12.91;54.29
17649;BME280;8943;51.110;-4.158;2023-04-23T04:37:50;99674.41;;;12.90;54.10
17649;BME280;8943;51.110;-4.158;2023-04-23T04:40:21;99670.91;;;12.89;54.08
17649;BME280;8943;51.110;-4.158;2023-04-23T04:42:49;99673.41;;;12.91;54.10
17649;BME280;8943;51.110;-4.158;2023-04-23T04:45:20;99687.44;;;12.93;54.42
17649;BME280;8943;51.110;-4.158;2023-04-23T04:47:49;99682.81;;;12.95;54.17
17649;BME280;8943;51.110;-4.158;2023-04-23T04:50:18;99667.78;;;12.94;54.32
17649;BME280;8943;51.110;-4.158;2023-04-23T04:52:46;99666.78;;;12.95;54.29
17649;BME280;8943;51.110;-4.158;2023-04-23T04:55:14;99667.78;;;12.94;54.07
17649;BME280;8943;51.110;-4.158;2023-04-23T04:57:43;99663.25;;;12.95;54.36
17649;BME280;8943;51.110;-4.158;2023-04-23T05:00:24;99669.00;;;13.00;54.10
17649;BME280;8943;51.110;-4.158;2023-04-23T05:02:54;99661.81;;;13.00;54.07
17649;BME280;8943;51.110;-4.158;2023-04-23T05:05:25;99653.09;;;12.98;54.16
17649;BME280;8943;51.110;-4.158;2023-04-23T05:07:53;99654.78;;;12.99;53.85
17649;BME280;8943;51.110;-4.158;2023-04-23T05:10:24;99651.09;;;13.00;54.18
17649;BME280;8943;51.110;-4.158;2023-04-23T05:12:52;99655.44;;;13.01;53.80
17649;BME280;8943;51.110;-4.158;2023-04-23T05:15:22;99658.97;;;13.02;54.02
17649;BME280;8943;51.110;-4.158;2023-04-23T05:17:53;99657.47;;;12.99;53.93
17649;BME280;8943;51.110;-4.158;2023-04-23T05:20:24;99654.06;;;12.97;54.03
17649;BME280;8943;51.110;-4.158;2023-04-23T05:22:53;99653.41;;;12.95;54.05
17649;BME280;8943;51.110;-4.158;2023-04-23T05:25:21;99652.56;;;12.95;54.08
17649;BME280;8943;51.110;-4.158;2023-04-23T05:27:50;99655.38;;;12.93;53.82
17649;BME280;8943;51.110;-4.158;2023-04-23T05:30:19;99655.69;;;12.90;54.04
17649;BME280;8943;51.110;-4.158;2023-04-23T05:32:49;99650.66;;;12.87;54.25
17649;BME280;8943;51.110;-4.158;2023-04-23T05:35:17;99650.97;;;12.84;54.04
17649;BME280;8943;51.110;-4.158;2023-04-23T05:37:45;99656.63;;;12.81;54.19
17649;BME280;8943;51.110;-4.158;2023-04-23T05:40:13;99659.28;;;12.81;54.09
17649;BME280;8943;51.110;-4.158;2023-04-23T05:42:41;99655.25;;;12.77;54.43
17649;BME280;8943;51.110;-4.158;2023-04-23T05:45:10;99657.25;;;12.75;54.38
17649;BME280;8943;51.110;-4.158;2023-04-23T05:47:38;99654.41;;;12.76;54.25
17649;BME280;8943;51.110;-4.158;2023-04-23T05:50:09;99656.91;;;12.78;54.25
17649;BME280;8943;51.110;-4.158;2023-04-23T05:52:38;99657.28;;;12.83;54.43
17649;BME280;8943;51.110;-4.158;2023-04-23T05:55:06;99657.66;;;12.88;54.38
17649;BME280;8943;51.110;-4.158;2023-04-23T05:57:36;99659.06;;;12.92;54.24
17649;BME280;8943;51.110;-4.158;2023-04-23T06:00:05;99657.75;;;12.96;54.44
17649;BME280;8943;51.110;-4.158;2023-04-23T06:02:35;99662.34;;;13.04;54.41
17649;BME280;8943;51.110;-4.158;2023-04-23T06:05:04;99657.50;;;13.07;54.30
17649;BME280;8943;51.110;-4.158;2023-04-23T06:07:34;99647.19;;;13.12;54.31
17649;BME280;8943;51.110;-4.158;2023-04-23T06:10:09;99650.25;;;13.18;54.29
17649;BME280;8943;51.110;-4.158;2023-04-23T06:12:38;99656.00;;;13.23;54.19
17649;BME280;8943;51.110;-4.158;2023-04-23T06:15:08;99659.19;;;13.26;54.26
17649;BME280;8943;51.110;-4.158;2023-04-23T06:17:37;99659.44;;;13.33;54.16
17649;BME280;8943;51.110;-4.158;2023-04-23T06:20:06;99655.75;;;13.34;54.17
17649;BME280;8943;51.110;-4.158;2023-04-23T06:22:37;99666.13;;;13.37;54.12
17649;BME280;8943;51.110;-4.158;2023-04-23T06:25:06;99665.13;;;13.38;54.28
17649;BME280;8943;51.110;-4.158;2023-04-23T06:27:35;99673.16;;;13.38;54.12
17649;BME280;8943;51.110;-4.158;2023-04-23T06:30:04;99669.19;;;13.42;54.41
17649;BME280;8943;51.110;-4.158;2023-04-23T06:32:34;99664.22;;;13.47;54.28
17649;BME280;8943;51.110;-4.158;2023-04-23T06:35:02;99668.91;;;13.53;53.96
17649;BME280;8943;51.110;-4.158;2023-04-23T06:37:32;99667.63;;;13.57;54.18
17649;BME280;8943;51.110;-4.158;2023-04-23T06:40:02;99667.28;;;13.60;54.03
17649;BME280;8943;51.110;-4.158;2023-04-23T06:42:30;99667.97;;;13.62;53.82
17649;BME280;8943;51.110;-4.158;2023-04-23T06:44:59;99674.00;;;13.64;54.21
17649;BME280;8943;51.110;-4.158;2023-04-23T06:47:32;99680.06;;;13.67;53.93
17649;BME280;8943;51.110;-4.158;2023-04-23T06:50:00;99668.34;;;13.68;53.97
17649;BME280;8943;51.110;-4.158;2023-04-23T06:52:28;99675.19;;;13.70;53.62
17649;BME280;8943;51.110;-4.158;2023-04-23T06:54:56;99672.69;;;13.69;53.81
17649;BME280;8943;51.110;-4.158;2023-04-23T06:57:27;99671.38;;;13.73;53.86
17649;BME280;8943;51.110;-4.158;2023-04-23T06:59:55;99670.38;;;13.74;53.68
17649;BME280;8943;51.110;-4.158;2023-04-23T07:02:24;99671.22;;;13.74;53.70
17649;BME280;8943;51.110;-4.158;2023-04-23T07:04:52;99669.06;;;13.78;54.02
17649;BME280;8943;51.110;-4.158;2023-04-23T07:07:22;99664.53;;;13.78;53.97
17649;BME280;8943;51.110;-4.158;2023-04-23T07:09:50;99671.41;;;13.81;53.86
17649;BME280;8943;51.110;-4.158;2023-04-23T07:12:18;99663.75;;;13.86;53.88
17649;BME280;8943;51.110;-4.158;2023-04-23T07:14:48;99667.47;;;13.93;54.05
17649;BME280;8943;51.110;-4.158;2023-04-23T07:17:19;99669.34;;;14.01;54.09
17649;BME280;8943;51.110;-4.158;2023-04-23T07:19:47;99670.38;;;14.08;54.01
17649;BME280;8943;51.110;-4.158;2023-04-23T07:22:16;99675.28;;;14.21;54.25
17649;BME280;8943;51.110;-4.158;2023-04-23T07:24:44;99668.44;;;14.34;54.48
17649;BME280;8943;51.110;-4.158;2023-04-23T07:27:13;99676.91;;;14.48;54.24
17649;BME280;8943;51.110;-4.158;2023-04-23T07:29:41;99673.41;;;14.63;54.13
17649;BME280;8943;51.110;-4.158;2023-04-23T07:32:12;99670.75;;;14.72;53.73
17649;BME280;8943;51.110;-4.158;2023-04-23T07:34:42;99679.50;;;14.82;53.94
17649;BME280;8943;51.110;-4.158;2023-04-23T07:37:15;99671.97;;;14.85;53.68
17649;BME280;8943;51.110;-4.158;2023-04-23T07:39:45;99679.16;;;14.93;53.62
17649;BME280;8943;51.110;-4.158;2023-04-23T07:42:14;99682.19;;;14.98;53.67
17649;BME280;8943;51.110;-4.158;2023-04-23T07:44:43;99683.88;;;15.07;53.62
17649;BME280;8943;51.110;-4.158;2023-04-23T07:47:15;99686.06;;;15.20;53.61
17649;BME280;8943;51.110;-4.158;2023-04-23T07:49:45;99687.56;;;15.31;53.55
17649;BME280;8943;51.110;-4.158;2023-04-23T07:52:16;99681.50;;;15.45;53.52
17649;BME280;8943;51.110;-4.158;2023-04-23T07:54:44;99687.38;;;15.57;53.43
17649;BME280;8943;51.110;-4.158;2023-04-23T07:57:13;99680.84;;;15.67;53.69
17649;BME280;8943;51.110;-4.158;2023-04-23T07:59:42;99692.88;;;15.80;53.46
17649;BME280;8943;51.110;-4.158;2023-04-23T08:02:15;99686.16;;;15.92;53.18
17649;BME280;8943;51.110;-4.158;2023-04-23T08:04:44;99691.31;;;16.02;53.26
17649;BME280;8943;51.110;-4.158;2023-04-23T08:07:12;99686.75;;;16.10;52.86
17649;BME280;8943;51.110;-4.158;2023-04-23T08:09:41;99692.63;;;16.14;52.94
17649;BME280;8943;51.110;-4.158;2023-04-23T08:12:12;99697.13;;;16.21;52.67
17649;BME280;8943;51.110;-4.158;2023-04-23T08:14:43;99693.03;;;16.34;52.57
17649;BME280;8943;51.110;-4.158;2023-04-23T08:17:13;99704.09;;;16.39;52.65
17649;BME280;8943;51.110;-4.158;2023-04-23T08:19:42;99708.78;;;16.45;52.53
17649;BME280;8943;51.110;-4.158;2023-04-23T08:22:10;99700.31;;;16.56;52.46
17649;BME280;8943;51.110;-4.158;2023-04-23T08:24:39;99703.09;;;16.71;52.35
17649;BME280;8943;51.110;-4.158;2023-04-23T08:27:07;99705.56;;;16.89;52.38
17649;BME280;8943;51.110;-4.158;2023-04-23T08:29:35;99705.63;;;17.04;51.95
17649;BME280;8943;51.110;-4.158;2023-04-23T08:32:04;99703.97;;;17.17;51.77
17649;BME280;8943;51.110;-4.158;2023-04-23T08:34:33;99704.22;;;17.31;51.29
17649;BME280;8943;51.110;-4.158;2023-04-23T08:37:03;99705.19;;;17.38;50.96
17649;BME280;8943;51.110;-4.158;2023-04-23T08:39:37;99706.09;;;17.45;50.49
17649;BME280;8943;51.110;-4.158;2023-04-23T08:42:10;99706.34;;;17.58;50.41
17649;BME280;8943;51.110;-4.158;2023-04-23T08:44:41;99704.66;;;17.57;50.03
17649;BME280;8943;51.110;-4.158;2023-04-23T08:47:10;99706.03;;;17.53;49.22
17649;BME280;8943;51.110;-4.158;2023-04-23T08:49:40;99712.13;;;17.47;49.14
17649;BME280;8943;51.110;-4.158;2023-04-23T08:52:15;99706.47;;;17.42;48.20
17649;BME280;8943;51.110;-4.158;2023-04-23T08:54:47;99705.25;;;17.30;47.35
17649;BME280;8943;51.110;-4.158;2023-04-23T08:57:16;99704.09;;;17.24;47.30
17649;BME280;8943;51.110;-4.158;2023-04-23T08:59:45;99709.84;;;17.21;47.50
17649;BME280;8943;51.110;-4.158;2023-04-23T09:02:15;99704.50;;;17.13;47.30
17649;BME280;8943;51.110;-4.158;2023-04-23T09:04:44;99712.91;;;16.95;45.15
17649;BME280;8943;51.110;-4.158;2023-04-23T09:07:18;99714.38;;;16.66;44.94
17649;BME280;8943;51.110;-4.158;2023-04-23T09:09:47;99703.41;;;16.45;44.82
17649;BME280;8943;51.110;-4.158;2023-04-23T09:12:15;99705.47;;;16.35;45.42
17649;BME280;8943;51.110;-4.158;2023-04-23T09:14:43;99708.16;;;16.35;45.68
17649;BME280;8943;51.110;-4.158;2023-04-23T09:17:11;99713.88;;;16.32;45.40
17649;BME280;8943;51.110;-4.158;2023-04-23T09:19:40;99708.69;;;16.30;45.42
17649;BME280;8943;51.110;-4.158;2023-04-23T09:22:09;99710.19;;;16.33;45.39
17649;BME280;8943;51.110;-4.158;2023-04-23T09:24:41;99714.19;;;16.37;45.54
17649;BME280;8943;51.110;-4.158;2023-04-23T09:27:10;99714.19;;;16.37;45.15
17649;BME280;8943;51.110;-4.158;2023-04-23T09:29:38;99716.56;;;16.40;45.15
17649;BME280;8943;51.110;-4.158;2023-04-23T09:32:08;99725.38;;;16.48;45.51
17649;BME280;8943;51.110;-4.158;2023-04-23T09:34:36;99723.00;;;16.54;45.24
17649;BME280;8943;51.110;-4.158;2023-04-23T09:37:05;99722.53;;;16.50;44.49
17649;BME280;8943;51.110;-4.158;2023-04-23T09:39:38;99724.44;;;16.41;44.46
17649;BME280;8943;51.110;-4.158;2023-04-23T09:42:08;99719.44;;;16.30;44.79
17649;BME280;8943;51.110;-4.158;2023-04-23T09:44:39;99721.97;;;16.23;44.71
17649;BME280;8943;51.110;-4.158;2023-04-23T09:47:07;99729.38;;;16.21;44.77
17649;BME280;8943;51.110;-4.158;2023-04-23T09:49:47;99728.22;;;16.16;44.65
17649;BME280;8943;51.110;-4.158;2023-04-23T09:52:16;99724.22;;;16.12;45.09
17649;BME280;8943;51.110;-4.158;2023-04-23T09:54:47;99725.88;;;16.13;45.09
17649;BME280;8943;51.110;-4.158;2023-04-23T09:57:17;99734.25;;;16.26;45.23
17649;BME280;8943;51.110;-4.158;2023-04-23T09:59:45;99729.81;;;16.41;45.34
17649;BME280;8943;51.110;-4.158;2023-04-23T10:02:26;99734.97;;;16.51;45.00
17649;BME280;8943;51.110;-4.158;2023-04-23T10:04:59;99741.69;;;16.55;44.67
17649;BME280;8943;51.110;-4.158;2023-04-23T10:07:47;99737.28;;;16.54;44.76
17649;BME280;8943;51.110;-4.158;2023-04-23T10:10:17;99749.44;;;16.50;44.89
17649;BME280;8943;51.110;-4.158;2023-04-23T10:12:47;99747.47;;;16.36;44.69
17649;BME280;8943;51.110;-4.158;2023-04-23T10:15:22;99747.81;;;16.33;45.06
17649;BME280;8943;51.110;-4.158;2023-04-23T10:17:50;99747.47;;;16.36;44.84
17649;BME280;8943;51.110;-4.158;2023-04-23T10:20:20;99755.22;;;16.31;44.80
17649;BME280;8943;51.110;-4.158;2023-04-23T10:22:52;99755.44;;;16.21;44.60
17649;BME280;8943;51.110;-4.158;2023-04-23T10:25:22;99749.75;;;16.08;44.44
17649;BME280;8943;51.110;-4.158;2023-04-23T10:27:54;99749.94;;;16.06;44.98
17649;BME280;8943;51.110;-4.158;2023-04-23T10:30:22;99749.59;;;16.01;45.38
17649;BME280;8943;51.110;-4.158;2023-04-23T10:32:51;99763.03;;;16.01;44.80
17649;BME280;8943;51.110;-4.158;2023-04-23T10:35:21;99760.19;;;15.94;45.31
17649;BME280;8943;51.110;-4.158;2023-04-23T10:37:49;99764.06;;;15.92;45.47
17649;BME280;8943;51.110;-4.158;2023-04-23T10:40:20;99763.56;;;15.80;45.48
17649;BME280;8943;51.110;-4.158;2023-04-23T10:42:52;99775.66;;;15.68;45.56
17649;BME280;8943;51.110;-4.158;2023-04-23T10:45:21;99779.50;;;15.57;46.01
17649;BME280;8943;51.110;-4.158;2023-04-23T10:47:52;99781.53;;;15.47;46.03
17649;BME280;8943;51.110;-4.158;2023-04-23T10:50:23;99782.16;;;15.41;46.00
17649;BME280;8943;51.110;-4.158;2023-04-23T10:52:52;99784.00;;;15.24;46.17
17649;BME280;8943;51.110;-4.158;2023-04-23T10:55:25;99785.66;;;15.09;46.18
17649;BME280;8943;51.110;-4.158;2023-04-23T10:58:02;99785.81;;;14.99;46.27
17649;BME280;8943;51.110;-4.158;2023-04-23T11:00:44;99785.28;;;14.96;46.44
17649;BME280;8943;51.110;-4.158;2023-04-23T11:03:28;99788.97;;;14.94;46.39
17649;BME280;8943;51.110;-4.158;2023-04-23T11:06:00;99795.50;;;14.92;46.71
17649;BME280;8943;51.110;-4.158;2023-04-23T11:08:29;99786.66;;;15.00;46.85
17649;BME280;8943;51.110;-4.158;2023-04-23T11:11:06;99792.00;;;15.08;47.00
17649;BME280;8943;51.110;-4.158;2023-04-23T11:13:50;99790.88;;;15.18;46.98
17649;BME280;8943;51.110;-4.158;2023-04-23T11:16:22;99785.50;;;15.27;47.19
17649;BME280;8943;51.110;-4.158;2023-04-23T11:18:58;99787.38;;;15.42;47.12
17649;BME280;8943;51.110;-4.158;2023-04-23T11:21:56;99792.75;;;15.59;47.20
17649;BME280;8943;51.110;-4.158;2023-04-23T11:24:31;99804.19;;;15.69;47.26
17649;BME280;8943;51.110;-4.158;2023-04-23T11:27:04;99797.47;;;15.81;47.32
17649;BME280;8943;51.110;-4.158;2023-04-23T11:29:36;99797.47;;;15.98;47.12
17649;BME280;8943;51.110;-4.158;2023-04-23T11:32:05;99798.25;;;16.14;47.35
17649;BME280;8943;51.110;-4.158;2023-04-23T11:34:38;99801.25;;;16.28;47.19
17649;BME280;8943;51.110;-4.158;2023-04-23T11:37:09;99801.19;;;16.44;47.32
17649;BME280;8943;51.110;-4.158;2023-04-23T11:39:38;99800.97;;;16.62;47.33
17649;BME280;8943;51.110;-4.158;2023-04-23T11:42:13;99805.31;;;16.79;47.44
17649;BME280;8943;51.110;-4.158;2023-04-23T11:52:02;99799.34;;;17.23;46.87
17649;BME280;8943;51.110;-4.158;2023-04-23T11:55:18;99800.94;;;17.32;46.80
17649;BME280;8943;51.110;-4.158;2023-04-23T11:58:13;99800.91;;;17.40;46.81
17649;BME280;8943;51.110;-4.158;2023-04-23T12:01:09;99809.09;;;17.47;46.14
17649;BME280;8943;51.110;-4.158;2023-04-23T12:03:38;99812.50;;;17.41;46.20
17649;BME280;8943;51.110;-4.158;2023-04-23T12:06:06;99814.56;;;17.39;45.80
17649;BME280;8943;51.110;-4.158;2023-04-23T12:08:37;99811.56;;;17.34;45.66
17649;BME280;8943;51.110;-4.158;2023-04-23T12:11:10;99811.38;;;17.35;45.88
17649;BME280;8943;51.110;-4.158;2023-04-23T12:13:39;99815.88;;;17.43;46.00
17649;BME280;8943;51.110;-4.158;2023-04-23T12:18:52;99815.75;;;17.59;45.88
17649;BME280;8943;51.110;-4.158;2023-04-23T12:21:20;99817.69;;;17.73;45.73
17649;BME280;8943;51.110;-4.158;2023-04-23T12:23:53;99814.38;;;17.86;45.49
17649;BME280;8943;51.110;-4.158;2023-04-23T12:26:21;99825.34;;;17.99;45.43
17649;BME280;8943;51.110;-4.158;2023-04-23T12:28:51;99820.19;;;18.13;45.54
17649;BME280;8943;51.110;-4.158;2023-04-23T12:31:22;99825.31;;;18.37;45.81
17649;BME280;8943;51.110;-4.158;2023-04-23T12:34:01;99824.41;;;18.60;45.48
17649;BME280;8943;51.110;-4.158;2023-04-23T12:36:33;99826.09;;;18.75;44.95
17649;BME280;8943;51.110;-4.158;2023-04-23T12:39:26;99829.16;;;18.72;43.68
17649;BME280;8943;51.110;-4.158;2023-04-23T12:41:56;99823.13;;;18.70;43.75
17649;BME280;8943;51.110;-4.158;2023-04-23T12:44:28;99812.50;;;18.69;43.64
17649;BME280;8943;51.110;-4.158;2023-04-23T12:46:58;99820.22;;;18.72;43.59
17649;BME280;8943;51.110;-4.158;2023-04-23T12:49:29;99820.59;;;18.69;43.08
17649;BME280;8943;51.110;-4.158;2023-04-23T12:51:59;99815.44;;;18.59;42.87
17649;BME280;8943;51.110;-4.158;2023-04-23T12:54:31;99830.25;;;18.48;42.61
17649;BME280;8943;51.110;-4.158;2023-04-23T12:57:00;99831.47;;;18.31;42.54
17649;BME280;8943;51.110;-4.158;2023-04-23T12:59:29;99833.75;;;18.19;42.35
17649;BME280;8943;51.110;-4.158;2023-04-23T13:01:57;99826.03;;;18.01;42.63
17649;BME280;8943;51.110;-4.158;2023-04-23T13:04:29;99834.28;;;18.00;43.21
17649;BME280;8943;51.110;-4.158;2023-04-23T13:06:58;99836.97;;;18.00;43.06
17649;BME280;8943;51.110;-4.158;2023-04-23T13:09:28;99837.81;;;18.00;43.18
17649;BME280;8943;51.110;-4.158;2023-04-23T13:11:57;99842.38;;;18.00;42.61
17649;BME280;8943;51.110;-4.158;2023-04-23T13:14:26;99850.25;;;17.87;42.62
17649;BME280;8943;51.110;-4.158;2023-04-23T13:16:58;99861.78;;;17.72;42.80
17649;BME280;8943;51.110;-4.158;2023-04-23T13:19:26;99862.31;;;17.68;42.64
17649;BME280;8943;51.110;-4.158;2023-04-23T13:21:54;99853.94;;;17.63;42.89
17649;BME280;8943;51.110;-4.158;2023-04-23T13:24:23;99851.78;;;17.81;43.24
17649;BME280;8943;51.110;-4.158;2023-04-23T13:26:54;99858.00;;;18.05;42.52